PWSweather.com
Personal Weather Stations
Station Observations
BRISTOL
HorfieldFilton, BristolGB BS7

HorfieldFiltonBristolGB BS7

Lat: 51.5, Lon: -2.576

Elevation: 272

Station Type: Davis VP2

http://www.martynhicks.co.uk/weather/data.php

Latest ConditionsUpdated 4:50:01 AM GMT Tuesday, Jul 7, 2015
Currently Today's Max Today's Min Today's Average
Temperature 61.4°F16.3°C 62.7°F17.1°C 60.5°F15.8°C 61.6°F16.4°C
Dew Point 59.7°F15.4°C 59.7°F15.4°C 54.0°F12.2°C 57.6°F14.2°C
Winds 3.5 mph SW5.6 kmh SW 10.4 mph SSW16.7 kmh SSW - 5.2 mph 8.4 kmh
Wind Gusts 8.1 mph13.0 kmh 20.7 mph33.3 kmh - -
Humidity 94% 94% 74% 87%
Pressure 29.79 in1008.8 mb 29.88 in1011.9 mb 29.79 in1008.8 mb -
Precipitation - 0.02 in0.5 mm - -
Hour Temp Dew Point Humidity Winds Wind Gusts Pressure Precip Precip Rate Daily Precip Total
04:50 AM 61.4°F16.3°C 59.7°F15.4°C 94% 3.5 mph SW5.6 kmh SW 8.1 mph13.0 kmh 29.79 in1008.8 mb - 0.00 in0.0 mm 0.02 in0.5 mm
04:40 AM 61.4°F16.3°C 59.7°F15.4°C 94% 3.5 mph SSW5.6 kmh SSW 6.9 mph11.1 kmh 29.79 in1008.8 mb - 0.00 in0.0 mm 0.02 in0.5 mm
04:30 AM 61.3°F16.3°C 59.6°F15.3°C 94% 3.5 mph SW5.6 kmh SW 4.6 mph7.4 kmh 29.79 in1008.8 mb - 0.00 in0.0 mm 0.02 in0.5 mm
04:20 AM 61.3°F16.3°C 59.5°F15.3°C 94% 2.3 mph SW3.7 kmh SW 5.8 mph9.3 kmh 29.79 in1008.8 mb - 0.00 in0.0 mm 0.02 in0.5 mm
04:10 AM 61.3°F16.3°C 59.5°F15.3°C 94% 2.3 mph SSW3.7 kmh SSW 5.8 mph9.3 kmh 29.80 in1009.1 mb - 0.00 in0.0 mm 0.02 in0.5 mm
04:00 AM 61.2°F16.2°C 59.2°F15.1°C 93% 6.9 mph SW11.1 kmh SW 12.7 mph20.4 kmh 29.80 in1009.1 mb - 0.01 in0.3 mm 0.02 in0.5 mm
03:50 AM 61.3°F16.3°C 59.3°F15.2°C 93% 3.5 mph SSW5.6 kmh SSW 5.8 mph9.3 kmh 29.80 in1009.1 mb - 0.00 in0.0 mm 0.02 in0.5 mm
03:40 AM 61.3°F16.3°C 59.3°F15.2°C 93% 4.6 mph SW7.4 kmh SW 8.1 mph13.0 kmh 29.80 in1009.1 mb - 0.01 in0.3 mm 0.02 in0.5 mm
03:30 AM 61.2°F16.2°C 59.2°F15.1°C 93% 5.8 mph SW9.3 kmh SW 9.2 mph14.8 kmh 29.81 in1009.5 mb - 0.00 in0.0 mm 0.01 in0.3 mm
03:20 AM 61.2°F16.2°C 59.1°F15.1°C 93% 8.1 mph SSW13.0 kmh SSW 12.7 mph20.4 kmh 29.81 in1009.5 mb - 0.00 in0.0 mm 0.01 in0.3 mm
03:10 AM 61.1°F16.2°C 59.0°F15.0°C 93% 2.3 mph SW3.7 kmh SW 3.5 mph5.6 kmh 29.81 in1009.5 mb - 0.00 in0.0 mm 0.01 in0.3 mm
03:00 AM 61.0°F16.1°C 59.0°F15.0°C 93% 4.6 mph SSW7.4 kmh SSW 5.8 mph9.3 kmh 29.81 in1009.5 mb - 0.00 in0.0 mm 0.01 in0.3 mm
02:50 AM 60.9°F16.1°C 58.6°F14.8°C 92% 2.3 mph SSW3.7 kmh SSW 8.1 mph13.0 kmh 29.81 in1009.5 mb - 0.00 in0.0 mm 0.01 in0.3 mm
02:40 AM 60.8°F16.0°C 58.5°F14.7°C 92% 4.6 mph S7.4 kmh S 6.9 mph11.1 kmh 29.82 in1009.8 mb - 0.00 in0.0 mm 0.01 in0.3 mm
02:30 AM 60.6°F15.9°C 58.0°F14.4°C 91% 3.5 mph SSW5.6 kmh SSW 10.4 mph16.7 kmh 29.82 in1009.8 mb - 0.00 in0.0 mm 0.01 in0.3 mm
02:20 AM 60.5°F15.8°C 57.9°F14.4°C 91% 2.3 mph SSW3.7 kmh SSW 5.8 mph9.3 kmh 29.83 in1010.2 mb - 0.00 in0.0 mm 0.01 in0.3 mm
02:10 AM 60.5°F15.8°C 57.5°F14.2°C 90% 3.5 mph SW5.6 kmh SW 9.2 mph14.8 kmh 29.83 in1010.2 mb - 0.00 in0.0 mm 0.01 in0.3 mm
02:00 AM 60.6°F15.9°C 57.4°F14.1°C 89% 4.6 mph SSW7.4 kmh SSW 11.5 mph18.5 kmh 29.84 in1010.5 mb - 0.00 in0.0 mm 0.01 in0.3 mm
01:50 AM 61.1°F16.2°C 57.2°F14.0°C 87% 5.8 mph S9.3 kmh S 9.2 mph14.8 kmh 29.85 in1010.8 mb - 0.01 in0.3 mm 0.01 in0.3 mm
01:40 AM 61.8°F16.6°C 57.3°F14.1°C 85% 5.8 mph SW9.3 kmh SW 10.4 mph16.7 kmh 29.85 in1010.8 mb - 0.00 in0.0 mm 0.00 in0.0 mm
01:30 AM 62.6°F17.0°C 56.7°F13.7°C 81% 9.2 mph SSW14.8 kmh SSW 16.1 mph25.9 kmh 29.86 in1011.2 mb - 0.00 in0.0 mm 0.00 in0.0 mm
01:20 AM 62.6°F17.0°C 56.3°F13.5°C 80% 5.8 mph SW9.3 kmh SW 8.1 mph13.0 kmh 29.85 in1010.8 mb - 0.00 in0.0 mm 0.00 in0.0 mm
01:10 AM 62.7°F17.1°C 56.0°F13.3°C 79% 8.1 mph SW13.0 kmh SW 13.8 mph22.2 kmh 29.85 in1010.8 mb - 0.00 in0.0 mm 0.00 in0.0 mm
01:00 AM 62.7°F17.1°C 56.1°F13.4°C 79% 10.4 mph SSW16.7 kmh SSW 20.7 mph33.3 kmh 29.85 in1010.8 mb - 0.00 in0.0 mm 0.00 in0.0 mm
12:50 AM 62.7°F17.1°C 55.7°F13.2°C 78% 8.1 mph SW13.0 kmh SW 15.0 mph24.1 kmh 29.86 in1011.2 mb - 0.00 in0.0 mm 0.00 in0.0 mm
12:40 AM 62.6°F17.0°C 55.3°F12.9°C 77% 5.8 mph SW9.3 kmh SW 18.4 mph29.6 kmh 29.86 in1011.2 mb - 0.00 in0.0 mm 0.00 in0.0 mm
12:30 AM 62.7°F17.1°C 55.0°F12.8°C 76% 5.8 mph SW9.3 kmh SW 12.7 mph20.4 kmh 29.87 in1011.5 mb - 0.00 in0.0 mm 0.00 in0.0 mm
12:20 AM 62.6°F17.0°C 54.6°F12.6°C 75% 8.1 mph WSW13.0 kmh WSW 12.7 mph20.4 kmh 29.87 in1011.5 mb - 0.00 in0.0 mm 0.00 in0.0 mm
12:10 AM 62.6°F17.0°C 54.2°F12.3°C 74% 6.9 mph SSW11.1 kmh SSW 11.5 mph18.5 kmh 29.88 in1011.9 mb - 0.00 in0.0 mm 0.00 in0.0 mm
12:00 AM 62.4°F16.9°C 54.0°F12.2°C 74% 5.8 mph SSW9.3 kmh SSW 6.9 mph11.1 kmh 29.88 in1011.9 mb - 0.00 in0.0 mm 0.00 in0.0 mm